METAR Data
IDs: Format: Raw Decoded Include TAF

Data at: 2105 UTC 02 Aug 2021

LIMW 021820Z AUTO 09014KT 9999 BKN110 22/11 Q1014